KCCO

Newnan Coweta County Airport

Atlanta, Georgia, USA
METAR KCCO 151655Z AUTO 24007KT 200V260 10SM SCT023 BKN028 OVC050 12/06 A2994 RMK AO2 T01150057
Observed Flight Rules
Dec-15 @ 16:55 UTC (21 minutes ago) Marginal Visual Flight Rules
Wind Visibility Clouds
240° at 7 knots 10 miles
  • Scattered at 2,300' AGL
  • Broken at 2,800' AGL
  • Overcast at 5,000' AGL
Temperatures Readings
Current 12°C / 54°F
Dewpoint 6°C / 43°F
Humidity 67%
Altimeter 29.94" Hg
Pressure 1014 hPa
Elevation 296
METAR KCCO 151655Z AUTO 24007KT 200V260 10SM SCT023 BKN028 OVC050 12/06 A2994 RMK AO2 T01150057
Observed Flight Rules
Dec-15 @ 16:55 UTC
(21 minutes ago)
MVFR
Wind Visibility
240° at 7 knots 10 miles
Clouds
  • Scattered at 2,300' AGL
  • Broken at 2,800' AGL
  • Overcast at 5,000' AGL
Temperature Dewpoint
12°C / 54°F 6°C / 43°F
Humidity Altimeter Pressure
67% 29.94" Hg 1014 hPa